Time;durP1;ratioP1;P1;durP2;ratioP2;P2;SDS_P1;SDS_P2;PMS_P1;PMS_P2;Temp;Humidity;BMP_temperature;BMP_pressure;BME280_temperature;BME280_humidity;BME280_pressure;Samples;Min_cycle;Max_cycle;Signal;HPM_P1;HPM_P2
2021/09/14 00:02:09;;;;;;;7.20;6.50;;;11.90;99.90;;;12.64;100.00;95130.00;2375529;55;33811;-60
2021/09/14 00:04:55;;;;;;;7.27;6.57;;;12.00;99.90;;;12.58;100.00;95146.00;2145301;57;26704;-60
2021/09/14 00:07:41;;;;;;;9.17;6.40;;;12.10;99.90;;;12.65;100.00;95136.00;2335660;57;27401;-60
2021/09/14 00:10:28;;;;;;;7.27;6.57;;;12.20;99.90;;;12.78;100.00;95137.00;2159931;57;27875;-60
2021/09/14 00:13:14;;;;;;;7.17;6.27;;;12.20;99.90;;;12.78;100.00;95137.00;2184597;56;26879;-62
2021/09/14 00:16:01;;;;;;;7.10;6.40;;;12.10;99.90;;;12.71;100.00;95130.00;2362802;56;27189;-60
2021/09/14 00:18:47;;;;;;;6.95;6.15;;;12.10;99.90;;;12.72;100.00;95130.00;2344016;56;26804;-60
2021/09/14 00:21:34;;;;;;;7.30;6.60;;;12.20;99.90;;;12.77;100.00;95125.00;2141097;57;27410;-60
2021/09/14 00:24:20;;;;;;;6.73;6.03;;;12.30;99.90;;;12.78;100.00;95134.00;2137945;57;26774;-60
2021/09/14 00:27:07;;;;;;;7.80;7.00;;;12.20;99.90;;;12.71;100.00;95126.00;2130989;57;26977;-64
2021/09/14 00:29:53;;;;;;;7.40;6.30;;;12.10;99.90;;;12.63;100.00;95123.00;2142381;57;26329;-60
2021/09/14 00:32:40;;;;;;;7.50;6.80;;;12.10;99.90;;;12.63;100.00;95115.00;2131629;57;26819;-60
2021/09/14 00:35:26;;;;;;;9.07;6.63;;;12.20;99.90;;;12.69;100.00;95123.00;2337979;57;26473;-60
2021/09/14 00:38:13;;;;;;;8.03;6.20;;;12.10;99.90;;;12.62;100.00;95119.00;2131307;57;26812;-60
2021/09/14 00:40:59;;;;;;;7.07;6.37;;;12.10;99.90;;;12.61;100.00;95123.00;2155638;57;26702;-60
2021/09/14 00:46:53;;;;;;;7.63;6.73;;;12.20;99.90;;;12.79;100.00;95105.00;2385224;55;33715;-60
2021/09/14 00:49:40;;;;;;;6.80;6.20;;;12.20;99.90;;;12.77;100.00;95115.00;2160196;56;27589;-60
2021/09/14 00:52:26;;;;;;;7.30;6.50;;;12.20;99.90;;;12.80;100.00;95114.00;2160893;56;26654;-60
2021/09/14 00:55:13;;;;;;;6.97;6.07;;;12.20;99.90;;;12.84;100.00;95116.00;2363568;56;26747;-60
2021/09/14 01:00:57;;;;;;;7.05;6.35;;;12.30;99.90;;;12.92;100.00;95102.00;2418645;55;34234;-60
2021/09/14 01:03:43;;;;;;;7.40;6.70;;;12.30;99.90;;;12.84;100.00;95110.00;2182370;55;27413;-60
2021/09/14 01:09:26;;;;;;;7.62;6.93;;;12.30;99.90;;;12.86;100.00;95094.00;2418756;55;34109;-60
2021/09/14 01:12:13;;;;;;;8.53;7.40;;;12.30;99.90;;;12.76;100.00;95104.00;2197407;56;26624;-60
2021/09/14 01:15:00;;;;;;;7.00;6.30;;;12.10;99.90;;;12.62;100.00;95092.00;2211158;56;26222;-60
2021/09/14 01:17:46;;;;;;;9.03;6.43;;;12.10;99.90;;;12.58;100.00;95097.00;2465123;55;26638;-60
2021/09/14 01:20:33;;;;;;;8.33;6.50;;;12.10;99.90;;;12.61;100.00;95097.00;2235876;56;26670;-61
2021/09/14 01:26:18;;;;;;;8.30;7.40;;;12.00;99.90;;;12.60;100.00;95092.00;2346988;56;33767;-60
2021/09/14 01:32:07;;;;;;;7.40;6.70;;;12.00;99.90;;;12.57;100.00;95090.00;2422509;54;33956;-59
2021/09/14 01:34:53;;;;;;;7.67;6.80;;;11.90;99.90;;;12.39;100.00;95100.00;2210368;55;26134;-60
2021/09/14 01:40:38;;;;;;;7.93;7.13;;;12.00;99.90;;;12.62;100.00;95088.00;2410937;55;33658;-60
2021/09/14 01:43:24;;;;;;;7.07;6.37;;;12.00;99.90;;;12.54;100.00;95098.00;2162708;56;27229;-60
2021/09/14 01:46:10;;;;;;;10.13;6.90;;;12.10;99.90;;;12.58;100.00;95105.00;2162085;56;26849;-60
2021/09/14 01:48:57;;;;;;;7.37;6.67;;;12.10;99.90;;;12.60;100.00;95105.00;2373697;56;26143;-60
2021/09/14 01:51:44;;;;;;;8.13;6.13;;;12.00;99.90;;;12.53;100.00;95098.00;2161508;56;26651;-60
2021/09/14 01:54:30;;;;;;;9.83;6.93;;;12.00;99.90;;;12.53;100.00;95102.00;2377975;56;26752;-60
2021/09/14 01:57:20;;;;;;;7.93;6.97;;;12.00;99.90;;;12.52;100.00;95103.00;2164458;57;26589;-60
2021/09/14 02:00:13;;;;;;;7.37;6.67;;;12.00;99.90;;;12.47;100.00;95097.00;2378982;56;26569;-60
2021/09/14 02:03:12;;;;;;;9.23;7.20;;;11.80;99.90;;;12.36;100.00;95107.00;2381039;56;26703;-60
2021/09/14 02:06:21;;;;;;;7.90;7.10;;;11.90;99.90;;;12.31;100.00;95104.00;2166779;57;26869;-60
2021/09/14 02:23:38;;;;;;;9.13;7.00;;;11.80;99.90;;;12.27;100.00;95097.00;2166721;57;27291;-60
2021/09/14 02:39:04;;;;;;;9.13;7.47;;;11.30;99.90;;;11.91;100.00;95094.00;2394977;55;33721;-60
2021/09/14 03:00:01;;;;;;;10.97;9.87;;;11.20;99.90;;;11.87;100.00;95099.00;2385255;55;33183;-60
2021/09/14 03:02:49;;;;;;;15.63;11.17;;;11.10;99.90;;;11.61;100.00;95111.00;2365074;56;26607;-60
2021/09/14 03:05:35;;;;;;;11.53;10.33;;;11.10;99.90;;;11.61;100.00;95115.00;2148493;58;26792;-60
2021/09/14 03:08:22;;;;;;;11.97;10.23;;;11.10;99.90;;;11.67;100.00;95108.00;2152811;56;26700;-60
2021/09/14 03:11:10;;;;;;;11.07;9.57;;;11.10;99.90;;;11.66;100.00;95111.00;2146456;57;26648;-61
2021/09/14 03:13:56;;;;;;;9.70;8.80;;;11.00;99.90;;;11.50;100.00;95097.00;2366215;56;26727;-60
2021/09/14 03:16:42;;;;;;;9.73;8.73;;;11.00;99.90;;;11.49;100.00;95106.00;2161855;57;26171;-60
2021/09/14 03:19:29;;;;;;;10.23;9.23;;;11.00;99.90;;;11.50;100.00;95098.00;2157902;57;26990;-61
2021/09/14 03:22:15;;;;;;;10.07;8.70;;;11.10;99.90;;;11.60;100.00;95093.00;2150114;57;26181;-61
2021/09/14 03:25:02;;;;;;;8.73;7.83;;;10.90;99.90;;;11.49;100.00;95091.00;2367447;56;27029;-60
2021/09/14 03:27:48;;;;;;;13.13;8.23;;;10.90;99.90;;;11.47;100.00;95093.00;2172084;57;26946;-61
2021/09/14 03:30:35;;;;;;;8.27;7.40;;;10.80;99.90;;;11.33;100.00;95097.00;2173303;57;26943;-60
2021/09/14 03:33:22;;;;;;;8.90;7.93;;;10.70;99.90;;;11.25;100.00;95092.00;2183603;57;26857;-61
2021/09/14 03:36:08;;;;;;;10.50;7.77;;;10.70;99.90;;;11.22;100.00;95095.00;2380576;57;26780;-60
2021/09/14 03:38:55;;;;;;;8.43;7.07;;;10.70;99.90;;;11.23;100.00;95102.00;2377422;56;26775;-61
2021/09/14 03:44:38;;;;;;;9.17;7.20;;;10.70;99.90;;;11.28;100.00;95088.00;2412414;54;33909;-60
2021/09/14 03:47:25;;;;;;;8.07;7.27;;;10.70;99.90;;;11.15;100.00;95104.00;2179764;56;27183;-61
2021/09/14 03:50:13;;;;;;;8.83;6.93;;;10.60;99.90;;;11.14;100.00;95108.00;2161083;57;26830;-60
2021/09/14 03:53:00;;;;;;;7.93;7.23;;;10.60;99.90;;;11.10;100.00;95107.00;2333324;57;26899;-61
2021/09/14 03:58:42;;;;;;;8.27;7.30;;;10.60;99.90;;;11.28;100.00;95073.00;2444371;54;34239;-61
2021/09/14 04:01:31;;;;;;;8.63;7.73;;;10.70;99.90;;;11.17;100.00;95089.00;2407472;55;26679;-60
2021/09/14 04:04:21;;;;;;;9.70;8.30;;;10.70;99.90;;;11.21;100.00;95096.00;2207575;55;26660;-60
2021/09/14 04:07:22;;;;;;;8.93;7.07;;;10.60;99.90;;;11.10;100.00;95092.00;2237386;55;26252;-61
2021/09/14 04:10:10;;;;;;;8.43;7.63;;;10.50;99.90;;;11.05;100.00;95085.00;2238831;55;26592;-61
2021/09/14 04:15:54;;;;;;;9.10;8.20;;;10.40;99.90;;;10.96;100.00;95063.00;2442672;54;34262;-60
2021/09/14 04:18:41;;;;;;;8.03;7.20;;;10.30;99.90;;;10.86;100.00;95078.00;2193471;55;26720;-60
2021/09/14 04:21:27;;;;;;;7.73;7.03;;;10.30;99.90;;;10.81;100.00;95088.00;2403433;55;26161;-60
2021/09/14 04:27:11;;;;;;;9.43;7.60;;;10.20;99.90;;;10.79;100.00;95078.00;2411509;54;34526;-61
2021/09/14 04:29:58;;;;;;;11.93;8.43;;;10.20;99.90;;;10.67;100.00;95095.00;2204842;55;26821;-59
2021/09/14 04:32:44;;;;;;;8.40;7.50;;;10.20;99.90;;;10.76;100.00;95090.00;2431911;55;26193;-61
2021/09/14 04:38:28;;;;;;;9.50;8.50;;;10.20;99.90;;;10.81;100.00;95080.00;2334464;56;33886;-61
2021/09/14 04:41:15;;;;;;;9.90;8.30;;;10.20;99.90;;;10.65;100.00;95094.00;2137021;57;26852;-60
2021/09/14 04:44:01;;;;;;;8.90;8.03;;;10.20;99.90;;;10.75;100.00;95094.00;2360350;57;26713;-60
2021/09/14 04:49:44;;;;;;;7.90;7.07;;;10.10;99.90;;;10.71;100.00;95083.00;2446434;54;34175;-60
2021/09/14 04:52:30;;;;;;;7.50;6.80;;;10.00;99.90;;;10.51;100.00;95101.00;2237049;54;26760;-60
2021/09/14 04:58:15;;;;;;;7.50;6.80;;;10.00;99.90;;;10.66;100.00;95089.00;2453431;54;34052;-62
2021/09/14 05:01:01;;;;;;;7.67;6.70;;;10.10;99.90;;;10.72;100.00;95106.00;2209051;56;26672;-60
2021/09/14 05:03:48;;;;;;;6.47;5.87;;;10.00;99.90;;;10.60;100.00;95099.00;2210927;56;26760;-60
2021/09/14 05:06:34;;;;;;;6.93;6.30;;;10.10;99.90;;;10.67;100.00;95106.00;2416467;55;26687;-60
2021/09/14 05:09:20;;;;;;;7.20;6.50;;;10.20;99.90;;;10.72;100.00;95102.00;2205101;55;26932;-60
2021/09/14 05:12:08;;;;;;;7.63;6.33;;;10.20;99.90;;;10.70;100.00;95108.00;2435336;55;27264;-61
2021/09/14 05:14:54;;;;;;;7.03;6.40;;;10.20;99.90;;;10.71;100.00;95104.00;2202381;54;26863;-60
2021/09/14 05:17:41;;;;;;;6.70;6.07;;;10.20;99.90;;;10.74;100.00;95100.00;2435907;54;26121;-60
2021/09/14 05:20:27;;;;;;;7.50;6.00;;;10.10;99.90;;;10.65;100.00;95105.00;2212874;54;26796;-61
2021/09/14 05:23:15;;;;;;;7.80;5.57;;;10.20;99.90;;;10.75;100.00;95104.00;2212777;56;26603;-61
2021/09/14 05:26:04;;;;;;;6.77;5.73;;;10.30;99.90;;;10.82;100.00;95097.00;2212061;56;26153;-60
2021/09/14 05:28:50;;;;;;;6.27;5.67;;;10.30;99.90;;;10.93;100.00;95103.00;2212540;56;26150;-60
2021/09/14 05:31:37;;;;;;;6.23;5.60;;;10.40;99.90;;;10.94;100.00;95092.00;2233186;56;26806;-60
2021/09/14 05:34:24;;;;;;;5.93;5.43;;;10.50;99.90;;;11.07;100.00;95092.00;2232978;56;26684;-60
2021/09/14 05:37:10;;;;;;;6.23;5.17;;;10.60;99.90;;;11.19;100.00;95092.00;2234997;56;26104;-60
2021/09/14 05:39:57;;;;;;;5.87;5.10;;;10.60;99.90;;;11.22;100.00;95095.00;2461380;54;26689;-60
2021/09/14 05:42:43;;;;;;;6.30;5.70;;;10.60;99.90;;;11.18;100.00;95093.00;2233050;56;26779;-61
2021/09/14 05:45:29;;;;;;;5.97;5.37;;;10.60;99.90;;;11.20;100.00;95099.00;2234568;56;27305;-60
2021/09/14 05:48:16;;;;;;;5.80;5.30;;;10.70;99.90;;;11.32;100.00;95093.00;2233527;56;26240;-61
2021/09/14 05:51:02;;;;;;;5.63;5.13;;;10.80;99.90;;;11.47;100.00;95088.00;2234377;56;26140;-60
2021/09/14 05:53:49;;;;;;;6.13;5.53;;;11.00;99.90;;;11.67;100.00;95096.00;2234264;56;27035;-60
2021/09/14 05:56:35;;;;;;;6.00;4.27;;;11.10;99.90;;;11.85;100.00;95081.00;2460501;55;27182;-60
2021/09/14 05:59:22;;;;;;;4.77;4.37;;;11.20;99.90;;;11.88;100.00;95088.00;2241143;56;26152;-60
2021/09/14 06:02:08;;;;;;;5.07;4.67;;;11.40;99.90;;;12.05;100.00;95092.00;2238536;56;26554;-60
2021/09/14 06:04:55;;;;;;;5.00;4.50;;;11.60;99.90;;;12.26;100.00;95089.00;2237950;56;26726;-60
2021/09/14 06:07:42;;;;;;;4.63;4.23;;;11.70;99.90;;;12.43;100.00;95087.00;2238083;56;26878;-61
2021/09/14 06:10:29;;;;;;;5.93;5.13;;;11.80;99.90;;;12.43;100.00;95085.00;2238872;56;27069;-61
2021/09/14 06:13:15;;;;;;;6.13;4.20;;;11.90;99.90;;;12.59;100.00;95090.00;2240206;56;26566;-60
2021/09/14 06:19:00;;;;;;;5.10;4.60;;;12.00;99.90;;;12.98;100.00;95088.00;2328393;55;34373;-61
2021/09/14 06:21:46;;;;;;;5.65;4.82;;;12.30;99.90;;;12.98;100.00;95100.00;2123459;57;26149;-61
2021/09/14 06:27:30;;;;;;;6.07;5.50;;;12.50;99.90;;;13.32;100.00;95083.00;2470572;53;33759;-61
2021/09/14 06:33:13;;;;;;;5.22;4.65;;;12.60;99.90;;;13.56;100.00;95089.00;2367354;55;34211;-62
2021/09/14 06:38:57;;;;;;;6.97;5.43;;;13.00;99.90;;;13.89;100.00;95082.00;2393777;55;34736;-60
2021/09/14 06:41:43;;;;;;;5.45;4.87;;;13.50;99.90;;;14.81;100.00;95101.00;2163564;56;26846;-61
2021/09/14 06:44:31;;;;;;;5.18;4.75;;;15.00;99.90;;;16.90;100.00;95097.00;2397752;55;27153;-61
2021/09/14 06:47:17;;;;;;;5.65;4.25;;;16.70;99.90;;;18.75;100.00;95072.00;2169476;56;27339;-61
2021/09/14 06:50:06;;;;;;;4.60;4.20;;;18.20;99.90;;;20.72;100.00;95073.00;2380865;56;27218;-60
2021/09/14 06:52:52;;;;;;;4.72;4.28;;;19.70;99.90;;;22.16;100.00;95071.00;2166288;56;26695;-61
2021/09/14 06:55:38;;;;;;;5.57;4.37;;;21.20;99.90;;;23.72;100.00;95075.00;2379260;56;26650;-61
2021/09/14 06:58:24;;;;;;;4.32;3.53;;;22.10;99.90;;;24.97;100.00;95074.00;2166902;57;26914;-61
2021/09/14 07:01:18;;;;;;;3.92;3.40;;;23.50;99.90;;;26.57;100.00;95072.00;2166283;57;27273;-59
2021/09/14 07:04:05;;;;;;;5.40;3.55;;;24.20;99.90;;;27.23;100.00;95070.00;2186603;56;26817;-59
2021/09/14 07:06:51;;;;;;;3.95;3.55;;;24.90;99.90;;;26.92;100.00;95071.00;2184076;57;26103;-59
2021/09/14 07:09:40;;;;;;;3.90;3.50;;;25.20;99.90;;;27.77;100.00;95070.00;2404326;56;26894;-59
2021/09/14 07:12:27;;;;;;;3.78;3.47;;;25.70;99.90;;;28.66;100.00;95069.00;2184095;57;26830;-59
2021/09/14 07:18:10;;;;;;;4.50;3.60;;;26.20;99.90;;;29.51;100.00;95056.00;2483571;54;34293;-60
2021/09/14 07:20:56;;;;;;;3.80;3.35;;;26.50;99.90;;;29.85;98.84;95056.00;2259641;54;27220;-60
2021/09/14 07:23:43;;;;;;;3.75;3.45;;;26.80;99.90;;;30.45;93.85;95059.00;2249425;53;27102;-59
2021/09/14 07:26:30;;;;;;;3.85;3.47;;;27.40;99.90;;;30.49;93.99;95053.00;2483433;53;27288;-58
2021/09/14 07:29:16;;;;;;;3.70;3.40;;;27.70;99.90;;;30.09;96.66;95062.00;2251647;53;25626;-59
2021/09/14 07:32:03;;;;;;;5.12;3.78;;;27.40;99.90;;;30.50;94.32;95062.00;2479436;53;25928;-58
2021/09/14 07:34:50;;;;;;;4.53;4.05;;;27.60;99.90;;;31.13;83.72;95061.00;2246420;53;25726;-58
2021/09/14 07:37:36;;;;;;;4.18;3.78;;;27.30;99.90;;;30.79;91.57;95063.00;2487126;53;25582;-59
2021/09/14 07:43:19;;;;;;;7.90;3.78;;;27.70;99.90;;;31.37;91.26;95054.00;2345195;56;33473;-61
2021/09/14 07:46:09;;;;;;;4.45;4.05;;;28.20;99.90;;;31.72;88.67;95058.00;2102230;58;26652;-60
2021/09/14 07:48:55;;;;;;;4.20;3.80;;;28.10;99.90;;;31.71;83.48;95064.00;2308011;58;25758;-58
2021/09/14 07:51:42;;;;;;;4.32;3.55;;;28.90;99.90;;;32.15;80.82;95056.00;2126025;58;25756;-59
2021/09/14 07:54:28;;;;;;;3.97;3.42;;;28.90;99.90;;;31.51;76.95;95053.00;2317066;56;25627;-58
2021/09/14 08:00:13;;;;;;;4.05;3.58;;;29.10;99.90;;;32.75;81.05;95050.00;2395885;55;33215;-60
2021/09/14 08:03:01;;;;;;;4.15;3.75;;;29.60;99.90;;;32.96;74.96;95054.00;2153970;56;25154;-60
2021/09/14 08:05:47;;;;;;;4.15;3.45;;;29.50;99.90;;;32.84;75.35;95058.00;2386901;55;25059;-60
2021/09/14 08:08:34;;;;;;;4.93;3.90;;;29.90;99.90;;;33.23;80.09;95054.00;2157656;56;26155;-60
2021/09/14 08:11:20;;;;;;;3.60;3.30;;;30.20;99.90;;;33.31;80.21;95053.00;2391673;55;26207;-60
2021/09/14 08:14:06;;;;;;;3.80;3.50;;;29.60;99.90;;;33.13;71.45;95054.00;2174109;56;27581;-61
2021/09/14 08:16:53;;;;;;;4.28;3.87;;;30.10;99.90;;;33.91;69.11;95053.00;2394088;55;26344;-60
2021/09/14 08:22:36;;;;;;;4.22;3.80;;;30.40;99.90;;;34.17;67.43;95060.00;2379818;55;33409;-58
2021/09/14 08:28:20;;;;;;;5.30;3.72;;;30.70;99.90;;;34.41;65.59;95056.00;2421552;54;33779;-59
2021/09/14 08:31:07;;;;;;;4.80;3.90;;;30.40;99.90;;;34.63;64.99;95056.00;2182897;56;25675;-59
2021/09/14 08:33:53;;;;;;;4.70;3.83;;;30.60;99.90;;;33.42;71.44;95052.00;2394121;55;25622;-58
2021/09/14 08:39:38;;;;;;;4.35;3.95;;;30.60;99.90;;;34.48;63.56;95051.00;2361022;55;32908;-58
2021/09/14 08:42:25;;;;;;;4.97;3.83;;;31.00;99.90;;;34.67;65.17;95057.00;2125457;56;26683;-58
2021/09/14 08:45:13;;;;;;;3.95;3.65;;;31.80;99.90;;;35.23;54.57;95050.00;2357376;56;26136;-58
2021/09/14 08:48:00;;;;;;;4.00;3.60;;;31.60;99.90;;;34.95;64.26;95057.00;2152210;56;25698;-58
2021/09/14 08:50:47;;;;;;;3.80;3.50;;;32.10;99.90;;;35.66;54.21;95059.00;2384284;55;26358;-58
2021/09/14 08:56:30;;;;;;;4.20;3.87;;;32.40;99.90;;;36.46;54.64;95054.00;2357854;55;32584;-59
2021/09/14 08:59:28;;;;;;;6.32;4.20;;;32.40;99.90;;;36.28;52.72;95058.00;2138421;57;25806;-59
2021/09/14 09:02:16;;;;;;;4.43;4.03;;;33.20;99.90;;;37.17;50.66;95057.00;2341917;57;25573;-59
2021/09/14 09:08:16;;;;;;;4.47;4.07;;;31.60;99.90;;;34.70;54.54;95056.00;2376212;55;33129;-59
2021/09/14 09:11:06;;;;;;;4.47;4.07;;;32.20;99.90;;;35.79;54.33;95046.00;2144445;58;26228;-58
2021/09/14 09:13:52;;;;;;;4.90;3.85;;;32.80;99.90;;;35.93;52.12;95049.00;2358909;57;25720;-59
2021/09/14 09:16:38;;;;;;;4.10;3.67;;;32.70;99.90;;;36.26;48.75;95047.00;2150720;58;25616;-59
2021/09/14 09:19:26;;;;;;;4.00;3.70;;;32.40;99.90;;;35.42;54.96;95057.00;2358551;57;25785;-59
2021/09/14 09:22:13;;;;;;;4.20;3.80;;;32.40;99.90;;;35.69;49.26;95053.00;2151655;58;25063;-58
2021/09/14 09:25:00;;;;;;;4.22;3.90;;;32.60;99.90;;;36.53;48.86;95051.00;2157059;57;26218;-59
2021/09/14 09:27:50;;;;;;;4.35;3.60;;;32.80;99.90;;;36.96;48.45;95041.00;2372557;57;25132;-58
2021/09/14 09:30:40;;;;;;;3.60;3.30;;;33.30;99.90;;;37.76;42.76;95046.00;2159699;58;26189;-59
2021/09/14 09:33:29;;;;;;;4.35;4.00;;;33.20;99.90;;;37.14;46.17;95038.00;2161124;58;25849;-58
2021/09/14 09:36:16;;;;;;;4.60;3.70;;;33.70;99.90;;;37.39;47.40;95034.00;2159359;58;25147;-58
2021/09/14 09:39:08;;;;;;;4.20;3.80;;;34.00;99.90;;;37.49;46.70;95034.00;2183079;58;26258;-58
2021/09/14 09:41:56;;;;;;;6.62;4.05;;;33.70;99.90;;;37.61;50.53;95031.00;2170431;58;25776;-58
2021/09/14 09:47:50;;;;;;;4.25;3.85;;;33.90;99.90;;;38.43;41.03;95032.00;2337826;56;33794;-59
2021/09/14 09:50:37;;;;;;;4.65;3.87;;;33.40;99.90;;;37.90;41.22;95025.00;2314381;56;25147;-58
2021/09/14 09:53:24;;;;;;;4.47;3.67;;;34.10;99.90;;;38.54;44.40;95030.00;2117869;57;25140;-59
2021/09/14 09:56:11;;;;;;;4.00;3.70;;;34.60;99.90;;;39.18;40.19;95033.00;2121134;58;25815;-58
2021/09/14 09:59:01;;;;;;;4.28;3.85;;;34.80;99.90;;;39.45;39.41;95029.00;2126868;58;25721;-59
2021/09/14 10:08:14;;;;;;;4.45;4.05;;;34.70;99.90;;;38.27;40.35;95018.00;2374189;55;32301;-58
2021/09/14 10:11:01;;;;;;;3.85;3.53;;;33.90;99.90;;;37.25;40.66;95012.00;2156415;57;25827;-58
2021/09/14 10:13:47;;;;;;;5.57;3.95;;;33.50;99.90;;;37.26;41.54;95014.00;2381635;56;25641;-59
2021/09/14 10:16:36;;;;;;;4.47;4.07;;;33.70;99.90;;;37.26;46.44;95005.00;2381997;56;25257;-58
2021/09/14 10:19:31;;;;;;;4.00;3.70;;;34.30;99.90;;;38.71;39.14;95008.00;2186801;56;25613;-58
2021/09/14 10:22:26;;;;;;;5.43;3.92;;;34.60;99.90;;;38.11;42.21;95004.00;2185100;56;25865;-59
2021/09/14 10:28:21;;;;;;;4.12;3.72;;;34.90;99.90;;;39.61;38.61;95010.00;2393951;55;33325;-58
2021/09/14 10:34:16;;;;;;;4.85;3.60;;;35.30;99.90;;;40.20;36.97;95004.00;2414558;54;33157;-58
2021/09/14 10:37:07;;;;;;;3.30;3.00;;;35.80;99.90;;;40.56;38.84;95003.00;2200921;54;25855;-58
2021/09/14 10:39:53;;;;;;;3.40;3.10;;;35.90;99.90;;;40.20;28.46;94996.00;2406450;55;25056;-58
2021/09/14 10:42:43;;;;;;;5.22;2.92;;;35.60;99.90;;;40.01;30.91;95001.00;2186276;55;25116;-59
2021/09/14 10:48:49;;;;;;;3.50;3.15;;;35.80;99.90;;;41.71;33.36;94987.00;2407157;55;33573;-59
2021/09/14 10:51:35;;;;;;;3.28;3.00;;;36.20;99.90;;;40.29;28.33;94991.00;2356532;56;26038;-59
2021/09/14 10:57:22;;;;;;;3.70;3.40;;;36.10;99.90;;;41.47;27.87;94992.00;2382951;54;33235;-59
2021/09/14 11:00:12;;;;;;;3.70;3.40;;;35.70;99.90;;;40.39;31.22;94995.00;2160691;56;26237;-59
2021/09/14 11:03:01;;;;;;;3.15;2.92;;;35.70;99.90;;;40.35;30.76;94995.00;2170683;56;25906;-58
2021/09/14 11:05:53;;;;;;;3.50;3.00;;;35.50;99.90;;;39.92;30.01;94989.00;2152556;56;25879;-59
2021/09/14 11:08:39;;;;;;;3.25;3.05;;;35.40;99.90;;;39.83;30.82;94987.00;2147286;56;25770;-59
2021/09/14 11:14:36;;;;;;;3.28;3.00;;;36.10;99.90;;;40.52;28.79;94994.00;2463599;52;32972;-59
2021/09/14 11:17:29;;;;;;;4.15;3.00;;;35.60;99.90;;;40.34;32.09;94990.00;2193865;55;25524;-58
2021/09/14 11:20:19;;;;;;;3.30;3.05;;;35.80;99.90;;;40.73;29.94;94992.00;2444690;54;25623;-59
2021/09/14 11:26:03;;;;;;;3.17;2.78;;;36.80;99.90;;;40.69;29.71;94985.00;2344036;55;33875;-59
2021/09/14 11:28:58;;;;;;;3.70;3.40;;;36.10;99.90;;;39.33;30.28;95001.00;2099783;57;25862;-59
2021/09/14 11:31:44;;;;;;;4.32;3.03;;;35.00;99.90;;;37.71;30.62;94986.00;2348428;56;25548;-59
2021/09/14 11:34:31;;;;;;;2.72;2.53;;;34.60;99.90;;;37.87;29.21;94990.00;2406200;56;26264;-58
2021/09/14 11:40:24;;;;;;;3.28;2.87;;;34.70;99.90;;;36.25;33.24;94974.00;2394689;55;32962;-58
2021/09/14 11:46:15;;;;;;;3.35;3.15;;;34.10;99.90;;;35.83;35.91;94982.00;2366932;55;33360;-60
2021/09/14 11:49:05;;;;;;;3.50;3.20;;;33.80;99.90;;;34.76;39.02;94993.00;2378583;56;26999;-60
2021/09/14 11:51:59;;;;;;;5.07;3.78;;;33.30;99.90;;;33.93;39.10;94985.00;2399728;56;25804;-60
2021/09/14 11:54:45;;;;;;;3.95;3.20;;;33.10;99.90;;;34.51;42.73;94993.00;2186487;56;25766;-60
2021/09/14 11:57:32;;;;;;;4.18;3.10;;;32.80;99.90;;;34.06;43.61;94984.00;2387581;56;25103;-58
2021/09/14 12:00:22;;;;;;;3.70;3.40;;;33.60;99.90;;;34.54;37.85;94993.00;2154222;56;25978;-59
2021/09/14 12:06:07;;;;;;;3.40;3.10;;;32.60;99.90;;;32.83;46.62;94983.00;2387813;55;33986;-60
2021/09/14 12:08:57;;;;;;;3.30;3.00;;;32.60;99.90;;;32.46;47.80;94986.00;2359580;57;25078;-60
2021/09/14 12:11:44;;;;;;;3.47;3.17;;;32.30;99.90;;;31.89;47.25;94982.00;2160045;57;27137;-61
2021/09/14 12:14:31;;;;;;;3.17;2.87;;;31.70;99.90;;;31.15;50.97;94970.00;2177959;56;26755;-60
2021/09/14 12:17:28;;;;;;;2.58;2.37;;;31.40;99.90;;;31.36;50.82;94972.00;2403185;55;25609;-60
2021/09/14 12:20:15;;;;;;;2.60;2.40;;;31.30;99.90;;;31.44;54.67;94968.00;2187296;56;26753;-60
2021/09/14 12:23:02;;;;;;;3.28;2.58;;;31.10;99.90;;;31.31;48.96;94969.00;2185210;56;26690;-60
2021/09/14 12:28:45;;;;;;;3.05;2.62;;;30.90;99.90;;;31.34;55.37;94966.00;2377305;55;34194;-60
2021/09/14 12:34:30;;;;;;;2.83;2.62;;;29.90;99.90;;;29.98;50.51;94968.00;2450122;54;34673;-60
2021/09/14 12:37:16;;;;;;;4.43;2.70;;;29.60;99.90;;;30.03;59.63;94965.00;2232573;56;27385;-60
2021/09/14 12:40:04;;;;;;;2.80;2.60;;;29.50;99.90;;;30.06;56.03;94970.00;2461503;54;26802;-60
2021/09/14 12:42:50;;;;;;;3.67;2.70;;;29.70;99.90;;;30.16;53.95;94957.00;2233942;55;25610;-60
2021/09/14 12:45:37;;;;;;;3.10;2.80;;;29.60;99.90;;;30.11;54.63;94959.00;2461090;55;27260;-60
2021/09/14 12:48:23;;;;;;;3.65;2.60;;;29.50;99.90;;;29.93;49.75;94956.00;2241747;55;25547;-60
2021/09/14 12:51:11;;;;;;;3.33;2.85;;;29.00;99.90;;;29.04;54.99;94961.00;2492165;54;27437;-60
2021/09/14 12:53:57;;;;;;;4.18;2.87;;;28.80;99.90;;;29.05;54.59;94957.00;2259529;55;26728;-60
2021/09/14 12:56:44;;;;;;;3.45;2.70;;;28.60;99.90;;;28.97;60.19;94958.00;2246637;56;26837;-60
2021/09/14 12:59:30;;;;;;;3.17;2.87;;;28.70;99.90;;;29.29;59.73;94964.00;2478879;54;26717;-61
2021/09/14 13:02:17;;;;;;;3.37;3.08;;;28.80;99.90;;;29.33;57.31;94962.00;2247604;56;27784;-58
2021/09/14 13:05:05;;;;;;;3.83;2.67;;;29.00;99.90;;;29.67;61.76;94954.00;2479187;54;26702;-58
2021/09/14 13:07:51;;;;;;;4.03;2.83;;;29.20;99.90;;;29.88;55.78;94958.00;2248908;54;26798;-58
2021/09/14 13:10:38;;;;;;;5.90;2.90;;;29.30;99.90;;;29.92;56.07;94954.00;2482858;54;25708;-58
2021/09/14 13:16:22;;;;;;;4.20;3.22;;;29.00;99.90;;;29.52;57.66;94948.00;2394667;54;33911;-60
2021/09/14 13:19:08;;;;;;;3.78;2.80;;;28.90;99.90;;;29.37;60.96;94950.00;2183230;57;25701;-60
2021/09/14 13:21:54;;;;;;;3.50;3.20;;;28.90;99.90;;;29.37;53.86;94956.00;2390251;56;25551;-60
2021/09/14 13:27:39;;;;;;;6.32;2.75;;;28.80;99.90;;;29.47;62.68;94935.00;2426375;54;33961;-60
2021/09/14 13:30:25;;;;;;;3.25;2.85;;;28.70;99.90;;;29.10;62.09;94936.00;2215042;56;27050;-60
2021/09/14 13:33:11;;;;;;;4.25;3.00;;;28.50;99.90;;;28.95;58.84;94939.00;2459481;54;25717;-60
2021/09/14 13:35:58;;;;;;;3.30;3.00;;;28.30;99.90;;;28.88;60.53;94944.00;2205263;56;27743;-60
2021/09/14 13:38:46;;;;;;;4.07;2.90;;;28.30;99.90;;;28.71;57.45;94933.00;2438890;55;26717;-59
2021/09/14 13:47:35;;;;;;;3.47;3.17;;;28.30;99.90;;;28.98;62.88;94930.00;2359332;56;26222;-60
2021/09/14 13:50:21;;;;;;;3.15;2.80;;;28.20;99.90;;;28.68;62.73;94921.00;2131659;57;27464;-60
2021/09/14 13:53:08;;;;;;;3.28;2.87;;;28.10;99.90;;;28.65;64.80;94919.00;2338095;57;26998;-60
2021/09/14 13:58:52;;;;;;;3.03;2.83;;;27.90;99.90;;;28.57;69.78;94920.00;2419561;54;32800;-59
2021/09/14 14:01:39;;;;;;;3.50;3.20;;;27.70;99.90;;;28.30;67.58;94923.00;2169832;56;26159;-59
2021/09/14 14:04:25;;;;;;;3.85;3.17;;;27.60;99.90;;;28.21;74.27;94932.00;2388350;56;26831;-60
2021/09/14 14:07:12;;;;;;;3.58;3.28;;;27.50;99.90;;;28.12;70.62;94918.00;2173090;56;27545;-60
2021/09/14 14:09:58;;;;;;;5.47;3.40;;;27.40;99.90;;;28.01;71.34;94925.00;2396614;56;26802;-60
2021/09/14 14:12:45;;;;;;;4.25;3.17;;;27.30;99.90;;;27.93;80.17;94916.00;2183529;56;27298;-60
2021/09/14 14:15:31;;;;;;;3.60;3.10;;;27.20;99.90;;;27.84;77.67;94919.00;2181367;56;27173;-60
2021/09/14 14:18:17;;;;;;;4.97;3.12;;;27.00;99.90;;;27.62;81.84;94919.00;2183563;56;26596;-60
2021/09/14 14:21:04;;;;;;;4.45;3.40;;;27.00;99.90;;;27.59;89.42;94919.00;2400085;56;26782;-60
2021/09/14 14:23:50;;;;;;;3.80;3.05;;;26.90;99.90;;;27.67;83.15;94913.00;2182585;56;26069;-60
2021/09/14 14:29:34;;;;;;;3.50;3.20;;;26.60;99.90;;;27.22;87.18;94907.00;2436151;55;33415;-60
2021/09/14 14:32:20;;;;;;;3.75;3.40;;;26.30;99.90;;;26.89;87.37;94918.00;2180681;55;26637;-60
2021/09/14 14:35:09;;;;;;;3.40;3.10;;;26.20;99.90;;;26.84;88.65;94910.00;2418539;54;26125;-59
2021/09/14 14:37:56;;;;;;;5.00;3.00;;;26.20;99.90;;;26.93;88.82;94911.00;2212647;55;27092;-60
2021/09/14 14:40:44;;;;;;;4.43;3.22;;;26.10;99.90;;;26.80;83.14;94915.00;2213179;55;26101;-60